createdAt,value
2018-10-11T00:01:31.588Z,100593.19
2018-10-11T00:03:59.631Z,100595.39
2018-10-11T00:06:28.017Z,100589.98
2018-10-11T00:08:56.261Z,100589.01
2018-10-11T00:11:24.246Z,100589.51
2018-10-11T00:13:52.581Z,100590.03
2018-10-11T00:16:21.087Z,100582.62
2018-10-11T00:18:49.139Z,100584.12
2018-10-11T00:21:17.673Z,100585.20
2018-10-11T00:23:45.931Z,100584.87
2018-10-11T00:26:14.374Z,100578.86
2018-10-11T00:28:42.639Z,100577.55
2018-10-11T00:31:11.158Z,100572.09
2018-10-11T00:33:39.397Z,100567.79
2018-10-11T00:36:07.638Z,100565.89
2018-10-11T00:38:36.144Z,100568.05
2018-10-11T00:41:04.474Z,100567.62
2018-10-11T00:43:32.691Z,100568.56
2018-10-11T00:46:00.989Z,100570.61
2018-10-11T00:48:29.437Z,100567.19
2018-10-11T00:50:57.288Z,100564.02
2018-10-11T00:53:25.492Z,100565.24
2018-10-11T00:55:53.352Z,100564.45
2018-10-11T00:58:21.137Z,100561.16
2018-10-11T01:00:49.449Z,100567.84
2018-10-11T01:03:17.438Z,100566.42
2018-10-11T01:05:45.820Z,100573.52
2018-10-11T01:08:14.083Z,100575.27
2018-10-11T01:10:42.087Z,100573.44
2018-10-11T01:13:10.623Z,100577.09
2018-10-11T01:15:38.946Z,100579.43
2018-10-11T01:18:07.311Z,100585.75
2018-10-11T01:20:35.632Z,100582.84
2018-10-11T01:23:03.962Z,100582.61
2018-10-11T01:25:32.224Z,100584.78
2018-10-11T01:28:00.915Z,100585.59
2018-10-11T01:30:29.139Z,100587.00
2018-10-11T01:32:57.521Z,100586.00
2018-10-11T01:35:25.950Z,100589.44
2018-10-11T01:37:54.474Z,100589.84
2018-10-11T01:40:22.851Z,100593.11
2018-10-11T01:43:06.140Z,100589.44
2018-10-11T01:45:34.820Z,100586.59
2018-10-11T01:48:02.999Z,100585.91
2018-10-11T01:50:31.383Z,100589.45
2018-10-11T01:52:59.590Z,100589.80
2018-10-11T01:55:28.646Z,100586.44
2018-10-11T01:57:58.070Z,100589.95
2018-10-11T02:00:26.444Z,100584.91
2018-10-11T02:02:56.626Z,100591.47
2018-10-11T02:05:25.658Z,100596.56
2018-10-11T02:07:54.326Z,100604.64
2018-10-11T02:10:22.591Z,100601.68
2018-10-11T02:12:51.118Z,100604.55
2018-10-11T02:15:19.409Z,100598.80
2018-10-11T02:17:47.663Z,100595.12
2018-10-11T02:20:16.006Z,100599.66
2018-10-11T02:22:44.419Z,100591.07
2018-10-11T02:25:12.887Z,100586.52
2018-10-11T02:27:41.490Z,100584.66
2018-10-11T02:30:10.659Z,100590.73
2018-10-11T02:32:38.433Z,100591.85
2018-10-11T02:35:06.892Z,100594.94
2018-10-11T02:37:35.116Z,100588.59
2018-10-11T02:40:03.647Z,100591.95
2018-10-11T02:42:31.886Z,100586.77
2018-10-11T02:45:00.097Z,100584.49
2018-10-11T02:47:28.414Z,100584.88
2018-10-11T02:49:56.751Z,100587.59
2018-10-11T02:52:24.969Z,100580.00
2018-10-11T02:54:53.333Z,100578.25
2018-10-11T02:57:32.755Z,100584.70
2018-10-11T03:00:02.060Z,100594.45
2018-10-11T03:02:30.387Z,100590.74
2018-10-11T03:04:58.936Z,100596.43
2018-10-11T03:07:28.019Z,100596.75
2018-10-11T03:09:56.287Z,100596.75
2018-10-11T03:12:24.545Z,100599.61
2018-10-11T03:14:53.014Z,100597.83
2018-10-11T03:17:21.267Z,100587.14
2018-10-11T03:19:49.592Z,100586.63
2018-10-11T03:22:17.754Z,100591.98
2018-10-11T03:24:46.344Z,100586.58
2018-10-11T03:27:14.625Z,100587.51
2018-10-11T03:29:42.889Z,100588.75
2018-10-11T03:32:11.376Z,100597.24
2018-10-11T03:34:40.155Z,100585.96
2018-10-11T03:37:08.199Z,100582.52
2018-10-11T03:39:36.458Z,100586.63
2018-10-11T03:42:04.762Z,100586.58
2018-10-11T03:44:32.973Z,100592.26
2018-10-11T03:47:01.325Z,100589.08
2018-10-11T03:49:29.386Z,100589.66
2018-10-11T03:51:57.396Z,100584.33
2018-10-11T03:54:25.972Z,100576.61
2018-10-11T03:56:54.850Z,100584.57
2018-10-11T03:59:22.966Z,100582.60
2018-10-11T04:01:51.137Z,100577.55
2018-10-11T04:04:18.994Z,100582.76
2018-10-11T04:06:47.010Z,100582.95
2018-10-11T04:09:15.295Z,100581.06
2018-10-11T04:11:43.631Z,100583.19
2018-10-11T04:14:11.803Z,100582.19
2018-10-11T04:16:39.761Z,100576.23
2018-10-11T04:19:07.682Z,100573.48
2018-10-11T04:21:36.044Z,100569.42
2018-10-11T04:24:04.114Z,100570.54
2018-10-11T04:26:32.274Z,100567.92
2018-10-11T04:29:00.551Z,100569.03
2018-10-11T04:31:28.754Z,100562.69
2018-10-11T04:33:57.104Z,100559.46
2018-10-11T04:36:25.315Z,100563.33
2018-10-11T04:38:53.384Z,100563.95
2018-10-11T04:41:21.675Z,100559.42
2018-10-11T04:43:49.931Z,100558.94
2018-10-11T04:46:18.159Z,100556.59
2018-10-11T04:48:46.543Z,100557.75
2018-10-11T04:51:14.768Z,100563.64
2018-10-11T04:53:43.076Z,100564.02
2018-10-11T04:56:11.375Z,100570.83
2018-10-11T04:58:39.607Z,100574.11
2018-10-11T05:01:07.390Z,100572.41
2018-10-11T05:03:35.086Z,100574.88
2018-10-11T05:06:03.122Z,100573.91
2018-10-11T05:08:31.454Z,100572.39
2018-10-11T05:10:59.782Z,100576.97
2018-10-11T05:13:46.394Z,100577.34
2018-10-11T05:16:15.227Z,100583.11
2018-10-11T05:18:53.039Z,100587.22
2018-10-11T05:21:21.256Z,100591.89
2018-10-11T05:23:49.564Z,100582.73
2018-10-11T05:26:18.093Z,100592.13
2018-10-11T05:28:46.211Z,100597.39
2018-10-11T05:31:14.898Z,100602.95
2018-10-11T05:33:43.475Z,100609.95
2018-10-11T05:36:11.743Z,100603.89
2018-10-11T05:38:40.076Z,100612.06
2018-10-11T05:41:07.918Z,100612.77
2018-10-11T05:43:36.452Z,100609.06
2018-10-11T05:46:08.660Z,100618.55
2018-10-11T05:48:36.883Z,100623.69
2018-10-11T05:51:05.077Z,100623.24
2018-10-11T05:53:33.322Z,100635.19
2018-10-11T05:56:01.593Z,100633.24
2018-10-11T05:58:29.777Z,100629.95
2018-10-11T06:00:57.635Z,100625.91
2018-10-11T06:03:25.715Z,100620.47
2018-10-11T06:05:53.541Z,100625.27
2018-10-11T06:08:21.415Z,100619.50
2018-10-11T06:10:49.713Z,100618.23
2018-10-11T06:13:17.615Z,100618.66
2018-10-11T06:15:45.481Z,100621.23
2018-10-11T06:18:13.615Z,100619.52
2018-10-11T06:20:41.930Z,100621.89
2018-10-11T06:23:09.745Z,100616.05
2018-10-11T06:25:37.591Z,100609.67
2018-10-11T06:28:05.868Z,100610.15
2018-10-11T06:30:34.749Z,100605.05
2018-10-11T06:33:02.678Z,100608.61
2018-10-11T06:35:31.028Z,100605.03
2018-10-11T06:37:59.477Z,100603.97
2018-10-11T06:40:27.451Z,100608.64
2018-10-11T06:42:55.295Z,100610.39
2018-10-11T06:45:23.189Z,100610.23
2018-10-11T06:47:55.327Z,100611.50
2018-10-11T06:50:23.255Z,100614.98
2018-10-11T06:52:51.142Z,100612.09
2018-10-11T06:55:18.962Z,100619.77
2018-10-11T06:57:46.731Z,100625.75
2018-10-11T07:00:14.512Z,100619.84
2018-10-11T07:02:42.338Z,100626.69
2018-10-11T07:05:10.103Z,100618.56
2018-10-11T07:07:37.872Z,100621.91
2018-10-11T07:10:05.776Z,100632.41
2018-10-11T07:12:33.510Z,100633.42
2018-10-11T07:15:01.235Z,100628.84
2018-10-11T07:17:29.039Z,100630.77
2018-10-11T07:19:56.711Z,100621.92
2018-10-11T07:22:24.454Z,100609.36
2018-10-11T07:24:52.259Z,100611.10
2018-10-11T07:27:19.974Z,100609.77
2018-10-11T07:29:47.789Z,100624.19
2018-10-11T07:32:15.562Z,100629.77
2018-10-11T07:34:43.348Z,100632.03
2018-10-11T07:37:11.093Z,100625.84
2018-10-11T07:39:38.875Z,100636.41
2018-10-11T07:42:06.619Z,100634.41
2018-10-11T07:44:34.353Z,100629.52
2018-10-11T07:47:02.222Z,100625.43
2018-10-11T07:49:29.979Z,100624.78
2018-10-11T07:51:57.683Z,100620.37
2018-10-11T07:54:32.050Z,100622.53
2018-10-11T07:57:00.407Z,100627.71
2018-10-11T07:59:28.158Z,100620.34
2018-10-11T08:01:55.988Z,100616.77
2018-10-11T08:04:23.772Z,100618.98
2018-10-11T08:06:51.548Z,100619.13
2018-10-11T08:09:19.350Z,100620.01
2018-10-11T08:11:47.201Z,100631.19
2018-10-11T08:14:15.564Z,100635.36
2018-10-11T08:16:43.464Z,100631.59
2018-10-11T08:19:11.311Z,100640.59
2018-10-11T08:21:38.894Z,100644.70
2018-10-11T08:24:07.275Z,100648.50
2018-10-11T08:26:35.101Z,100648.41
2018-10-11T08:29:02.838Z,100652.80
2018-10-11T08:31:31.018Z,100654.02
2018-10-11T08:33:59.450Z,100652.50
2018-10-11T08:36:27.768Z,100657.48
2018-10-11T08:38:55.526Z,100658.14
2018-10-11T08:41:23.247Z,100664.14
2018-10-11T08:43:51.103Z,100659.27
2018-10-11T08:46:18.854Z,100660.08
2018-10-11T08:48:46.549Z,100659.10
2018-10-11T08:51:14.318Z,100660.86
2018-10-11T08:53:42.195Z,100658.59
2018-10-11T08:56:09.925Z,100653.79
2018-10-11T08:58:37.870Z,100657.61
2018-10-11T09:01:05.760Z,100658.96
2018-10-11T09:03:33.815Z,100672.14
2018-10-11T09:06:01.614Z,100670.35
2018-10-11T09:08:29.448Z,100669.09
2018-10-11T09:10:57.236Z,100673.73
2018-10-11T09:13:24.943Z,100681.11
2018-10-11T09:15:52.743Z,100676.11
2018-10-11T09:18:20.486Z,100680.04
2018-10-11T09:20:48.202Z,100681.69
2018-10-11T09:23:16.038Z,100684.70
2018-10-11T09:25:43.831Z,100678.72
2018-10-11T09:28:11.530Z,100671.95
2018-10-11T09:30:39.302Z,100665.69
2018-10-11T09:33:07.045Z,100675.72
2018-10-11T09:35:34.871Z,100674.14
2018-10-11T09:38:02.659Z,100670.28
2018-10-11T09:40:30.320Z,100662.81
2018-10-11T09:42:58.112Z,100660.34
2018-10-11T09:45:25.903Z,100664.34
2018-10-11T09:47:53.602Z,100655.05
2018-10-11T09:50:21.367Z,100663.25
2018-10-11T09:52:49.150Z,100663.98
2018-10-11T09:55:16.939Z,100658.53
2018-10-11T09:57:44.706Z,100653.25
2018-10-11T10:00:18.054Z,100652.12
2018-10-11T10:02:46.908Z,100650.55
2018-10-11T10:05:14.668Z,100647.74
2018-10-11T10:07:42.382Z,100643.80
2018-10-11T10:10:10.134Z,100649.69
2018-10-11T10:12:37.847Z,100639.25
2018-10-11T10:15:05.927Z,100638.40
2018-10-11T10:17:35.319Z,100637.59
2018-10-11T10:20:03.492Z,100636.91
2018-10-11T10:22:32.035Z,100637.16
2018-10-11T10:25:00.177Z,100637.25
2018-10-11T10:27:28.545Z,100642.22
2018-10-11T10:29:57.042Z,100639.80
2018-10-11T10:32:25.417Z,100638.66
2018-10-11T10:34:53.132Z,100633.52
2018-10-11T10:37:20.868Z,100623.77
2018-10-11T10:39:48.623Z,100627.91
2018-10-11T10:42:16.297Z,100622.48
2018-10-11T10:44:44.168Z,100619.71
2018-10-11T10:47:11.883Z,100614.23
2018-10-11T10:49:39.651Z,100615.77
2018-10-11T10:52:07.461Z,100614.26
2018-10-11T10:54:35.874Z,100604.81
2018-10-11T10:57:04.572Z,100615.22
2018-10-11T10:59:32.775Z,100612.14
2018-10-11T11:02:01.041Z,100614.91
2018-10-11T11:04:29.299Z,100617.46
2018-10-11T11:06:57.667Z,100618.48
2018-10-11T11:09:25.885Z,100616.27
2018-10-11T11:11:54.223Z,100615.33
2018-10-11T11:14:22.448Z,100613.13
2018-10-11T11:16:50.994Z,100616.44
2018-10-11T11:19:19.183Z,100620.98
2018-10-11T11:21:47.693Z,100621.92
2018-10-11T11:24:15.942Z,100613.84
2018-10-11T11:26:44.400Z,100621.97
2018-10-11T11:29:12.498Z,100612.49
2018-10-11T11:31:40.762Z,100619.41
2018-10-11T11:34:09.236Z,100619.42
2018-10-11T11:36:37.560Z,100614.13
2018-10-11T11:39:07.683Z,100621.34
2018-10-11T11:41:35.839Z,100620.99
2018-10-11T11:44:04.291Z,100626.34
2018-10-11T11:46:32.499Z,100629.34
2018-10-11T11:49:00.932Z,100617.01
2018-10-11T11:51:29.317Z,100611.28
2018-10-11T11:53:57.677Z,100609.27
2018-10-11T11:56:26.052Z,100607.19
2018-10-11T11:58:54.496Z,100598.25
2018-10-11T12:01:22.319Z,100591.50
2018-10-11T12:03:50.090Z,100588.86
2018-10-11T12:06:17.834Z,100587.47
2018-10-11T12:08:45.565Z,100587.38
2018-10-11T12:11:13.324Z,100588.48
2018-10-11T12:13:41.155Z,100588.02
2018-10-11T12:16:08.876Z,100584.70
2018-10-11T12:18:36.615Z,100590.09
2018-10-11T12:21:04.536Z,100584.21
2018-10-11T12:23:32.290Z,100579.74
2018-10-11T12:26:00.040Z,100582.13
2018-10-11T12:28:27.888Z,100583.16
2018-10-11T12:30:55.679Z,100583.92
2018-10-11T12:33:23.488Z,100582.98
2018-10-11T12:35:51.243Z,100593.11
2018-10-11T12:38:19.428Z,100589.20
2018-10-11T12:40:47.781Z,100593.81
2018-10-11T12:43:16.102Z,100592.36
2018-10-11T12:45:43.843Z,100587.53
2018-10-11T12:48:11.612Z,100584.61
2018-10-11T12:50:39.496Z,100583.98
2018-10-11T12:53:07.652Z,100580.58
2018-10-11T12:55:35.421Z,100585.46
2018-10-11T12:58:03.200Z,100582.44
2018-10-11T13:00:30.895Z,100579.53
2018-10-11T13:02:58.840Z,100582.38
2018-10-11T13:05:26.492Z,100581.75
2018-10-11T13:07:54.306Z,100582.05
2018-10-11T13:10:22.052Z,100578.30
2018-10-11T13:12:49.816Z,100578.58
2018-10-11T13:15:17.558Z,100580.80
2018-10-11T13:17:45.331Z,100576.49
2018-10-11T13:20:13.123Z,100579.55
2018-10-11T13:22:40.804Z,100567.91
2018-10-11T13:25:08.611Z,100568.42
2018-10-11T13:27:36.394Z,100569.23
2018-10-11T13:30:04.281Z,100570.14
2018-10-11T13:32:32.092Z,100573.81
2018-10-11T13:34:59.935Z,100570.94
2018-10-11T13:37:27.703Z,100570.39
2018-10-11T13:39:57.691Z,100570.04
2018-10-11T13:42:23.279Z,100563.27
2018-10-11T13:44:51.023Z,100565.19
2018-10-11T13:47:18.802Z,100566.00
2018-10-11T13:49:46.676Z,100556.59
2018-10-11T13:52:17.051Z,100556.91
2018-10-11T13:54:42.225Z,100556.06
2018-10-11T13:57:10.044Z,100556.61
2018-10-11T13:59:37.822Z,100552.63
2018-10-11T14:02:05.607Z,100546.25
2018-10-11T14:04:33.507Z,100544.91
2018-10-11T14:07:01.272Z,100543.01
2018-10-11T14:09:29.099Z,100537.42
2018-10-11T14:11:56.867Z,100534.11
2018-10-11T14:14:24.542Z,100539.70
2018-10-11T14:16:52.267Z,100529.45
2018-10-11T14:19:20.052Z,100539.09
2018-10-11T14:21:47.763Z,100535.95
2018-10-11T14:24:15.618Z,100529.14
2018-10-11T14:26:43.416Z,100532.00
2018-10-11T14:29:11.131Z,100533.75
2018-10-11T14:31:38.923Z,100527.75
2018-10-11T14:34:06.943Z,100534.69
2018-10-11T14:36:34.794Z,100529.00
2018-10-11T14:39:02.602Z,100532.98
2018-10-11T14:41:30.391Z,100530.52
2018-10-11T14:43:58.148Z,100539.23
2018-10-11T14:46:25.920Z,100541.34
2018-10-11T14:48:53.736Z,100539.02
2018-10-11T14:51:21.544Z,100543.38
2018-10-11T14:53:52.780Z,100543.62
2018-10-11T14:56:17.036Z,100541.02
2018-10-11T14:58:44.859Z,100540.28
2018-10-11T15:01:12.654Z,100535.46
2018-10-11T15:03:40.416Z,100536.83
2018-10-11T15:06:08.262Z,100538.48
2018-10-11T15:08:36.107Z,100537.12
2018-10-11T15:11:03.901Z,100541.50
2018-10-11T15:13:31.626Z,100539.72
2018-10-11T15:15:59.462Z,100543.59
2018-10-11T15:18:27.213Z,100536.17
2018-10-11T15:20:54.983Z,100535.53
2018-10-11T15:23:22.747Z,100540.44
2018-10-11T15:25:50.569Z,100537.59
2018-10-11T15:28:18.323Z,100541.65
2018-10-11T15:30:46.056Z,100541.05
2018-10-11T15:33:13.812Z,100548.81
2018-10-11T15:35:41.651Z,100549.47
2018-10-11T15:38:09.360Z,100538.37
2018-10-11T15:40:37.211Z,100537.63
2018-10-11T15:43:05.052Z,100537.66
2018-10-11T15:45:32.775Z,100537.98
2018-10-11T15:48:00.568Z,100532.83
2018-10-11T15:50:28.319Z,100535.72
2018-10-11T15:52:56.138Z,100531.26
2018-10-11T15:55:23.947Z,100535.60
2018-10-11T15:57:51.764Z,100537.11
2018-10-11T16:00:19.564Z,100543.23
2018-10-11T16:02:47.366Z,100541.77
2018-10-11T16:05:15.107Z,100543.80
2018-10-11T16:07:42.935Z,100542.99
2018-10-11T16:10:10.699Z,100543.33
2018-10-11T16:12:38.470Z,100544.05
2018-10-11T16:15:06.324Z,100547.15
2018-10-11T16:17:34.192Z,100551.22
2018-10-11T16:20:02.032Z,100553.92
2018-10-11T16:22:29.764Z,100551.38
2018-10-11T16:24:57.547Z,100559.97
2018-10-11T16:27:25.537Z,100557.46
2018-10-11T16:29:53.327Z,100570.31
2018-10-11T16:32:21.181Z,100559.64
2018-10-11T16:34:48.870Z,100565.04
2018-10-11T16:37:16.606Z,100564.02
2018-10-11T16:39:44.427Z,100566.88
2018-10-11T16:42:12.150Z,100561.30
2018-10-11T16:44:39.843Z,100568.09
2018-10-11T16:47:07.647Z,100574.33
2018-10-11T16:49:35.428Z,100576.66
2018-10-11T16:52:03.212Z,100580.31
2018-10-11T16:54:30.944Z,100584.99
2018-10-11T16:56:58.666Z,100579.56
2018-10-11T16:59:26.456Z,100580.59
2018-10-11T17:01:54.904Z,100583.09
2018-10-11T17:04:23.176Z,100584.73
2018-10-11T17:06:51.621Z,100585.19
2018-10-11T17:09:19.675Z,100575.61
2018-10-11T17:11:48.052Z,100575.73
2018-10-11T17:14:16.631Z,100576.44
2018-10-11T17:16:44.643Z,100569.86
2018-10-11T17:19:12.702Z,100570.73
2018-10-11T17:21:41.192Z,100571.80
2018-10-11T17:24:09.476Z,100571.08
2018-10-11T17:26:37.707Z,100568.16
2018-10-11T17:29:06.083Z,100563.66
2018-10-11T17:31:34.550Z,100567.95
2018-10-11T17:34:03.028Z,100559.41
2018-10-11T17:36:31.496Z,100564.05
2018-10-11T17:38:59.961Z,100565.81
2018-10-11T17:41:28.390Z,100560.63
2018-10-11T17:43:56.871Z,100563.75
2018-10-11T17:46:25.376Z,100564.84
2018-10-11T17:48:53.592Z,100570.06
2018-10-11T17:51:21.813Z,100570.53
2018-10-11T17:53:49.615Z,100572.11
2018-10-11T17:56:17.367Z,100578.95
2018-10-11T17:58:45.136Z,100577.52
2018-10-11T18:01:12.979Z,100583.13
2018-10-11T18:03:40.788Z,100578.36
2018-10-11T18:06:08.549Z,100580.08
2018-10-11T18:08:36.612Z,100583.50
2018-10-11T18:11:11.483Z,100587.73
2018-10-11T18:13:39.559Z,100588.45
2018-10-11T18:16:07.300Z,100588.52
2018-10-11T18:18:35.501Z,100587.26
2018-10-11T18:21:03.823Z,100585.75
2018-10-11T18:23:32.060Z,100593.34
2018-10-11T18:26:00.308Z,100591.28
2018-10-11T18:28:28.852Z,100591.84
2018-10-11T18:30:57.046Z,100591.01
2018-10-11T18:33:25.511Z,100587.86
2018-10-11T18:35:53.754Z,100593.69
2018-10-11T18:38:22.104Z,100591.56
2018-10-11T18:40:50.340Z,100597.94
2018-10-11T18:43:18.685Z,100605.75
2018-10-11T18:45:46.448Z,100603.05
2018-10-11T18:48:14.167Z,100603.55
2018-10-11T18:50:41.966Z,100608.41
2018-10-11T18:53:09.716Z,100604.59
2018-10-11T18:55:37.455Z,100600.03
2018-10-11T18:58:05.235Z,100604.75
2018-10-11T19:00:32.935Z,100603.00
2018-10-11T19:03:00.663Z,100604.59
2018-10-11T19:05:28.843Z,100599.16
2018-10-11T19:07:57.080Z,100600.17
2018-10-11T19:10:25.406Z,100605.84
2018-10-11T19:12:53.674Z,100603.73
2018-10-11T19:15:22.022Z,100610.75
2018-10-11T19:17:50.420Z,100607.00
2018-10-11T19:20:18.556Z,100614.13
2018-10-11T19:22:46.730Z,100619.41
2018-10-11T19:25:15.028Z,100613.50
2018-10-11T19:27:43.203Z,100614.42
2018-10-11T19:30:11.567Z,100615.06
2018-10-11T19:32:39.416Z,100621.09
2018-10-11T19:35:07.607Z,100618.69
2018-10-11T19:37:36.009Z,100622.48
2018-10-11T19:40:04.272Z,100623.45
2018-10-11T19:42:32.815Z,100619.08
2018-10-11T19:45:01.230Z,100623.19
2018-10-11T19:47:29.526Z,100629.52
2018-10-11T19:49:57.851Z,100622.30
2018-10-11T19:52:26.077Z,100627.53
2018-10-11T19:54:54.588Z,100629.31
2018-10-11T19:57:22.911Z,100627.72
2018-10-11T19:59:51.327Z,100635.95
2018-10-11T20:02:19.567Z,100638.27
2018-10-11T20:04:47.527Z,100624.94
2018-10-11T20:07:15.307Z,100628.10
2018-10-11T20:09:43.579Z,100627.95
2018-10-11T20:12:11.499Z,100625.31
2018-10-11T20:14:39.908Z,100621.05
2018-10-11T20:17:08.107Z,100614.98
2018-10-11T20:19:36.368Z,100613.81
2018-10-11T20:22:04.552Z,100606.36
2018-10-11T20:24:32.308Z,100607.37
2018-10-11T20:27:00.497Z,100611.53
2018-10-11T20:29:28.782Z,100609.52
2018-10-11T20:31:57.263Z,100616.29
2018-10-11T20:34:25.575Z,100614.14
2018-10-11T20:36:53.294Z,100617.98
2018-10-11T20:39:21.100Z,100618.30
2018-10-11T20:41:48.947Z,100615.73
2018-10-11T20:44:16.655Z,100614.67
2018-10-11T20:46:44.331Z,100611.78
2018-10-11T20:49:12.427Z,100611.64
2018-10-11T20:51:40.467Z,100615.56
2018-10-11T20:54:08.867Z,100615.16
2018-10-11T20:56:37.399Z,100617.06
2018-10-11T20:59:06.148Z,100615.00
2018-10-11T21:01:34.619Z,100619.43
2018-10-11T21:04:03.089Z,100617.05
2018-10-11T21:06:31.382Z,100620.06
2018-10-11T21:08:59.683Z,100620.95
2018-10-11T21:11:28.155Z,100625.21
2018-10-11T21:13:56.715Z,100624.70
2018-10-11T21:16:24.644Z,100627.56
2018-10-11T21:18:53.177Z,100629.84
2018-10-11T21:21:21.439Z,100620.45
2018-10-11T21:23:49.904Z,100620.55
2018-10-11T21:26:18.143Z,100620.95
2018-10-11T21:28:46.661Z,100617.95
2018-10-11T21:31:15.121Z,100619.11
2018-10-11T21:33:43.485Z,100622.30
2018-10-11T21:36:11.887Z,100617.25
2018-10-11T21:38:40.196Z,100621.31
2018-10-11T21:41:08.193Z,100620.66
2018-10-11T21:43:36.732Z,100611.38
2018-10-11T21:46:05.011Z,100606.52
2018-10-11T21:48:33.578Z,100615.64
2018-10-11T21:51:02.144Z,100610.34
2018-10-11T21:53:30.541Z,100612.03
2018-10-11T21:55:59.020Z,100615.89
2018-10-11T21:58:27.444Z,100614.17
2018-10-11T22:01:01.343Z,100610.97
2018-10-11T22:03:29.768Z,100600.34
2018-10-11T22:05:58.144Z,100608.60
2018-10-11T22:08:26.417Z,100609.95
2018-10-11T22:10:54.942Z,100611.59
2018-10-11T22:13:23.354Z,100616.66
2018-10-11T22:15:51.536Z,100614.94
2018-10-11T22:18:19.877Z,100619.45
2018-10-11T22:20:48.083Z,100620.91
2018-10-11T22:23:15.907Z,100621.06
2018-10-11T22:25:43.681Z,100625.48
2018-10-11T22:28:11.536Z,100622.44
2018-10-11T22:30:39.482Z,100628.39
2018-10-11T22:33:07.411Z,100627.92
2018-10-11T22:35:35.173Z,100627.44
2018-10-11T22:38:03.082Z,100627.13
2018-10-11T22:40:31.090Z,100630.66
2018-10-11T22:42:58.887Z,100628.49
2018-10-11T22:45:27.210Z,100633.01
2018-10-11T22:47:55.986Z,100621.34
2018-10-11T22:50:24.911Z,100622.47
2018-10-11T22:52:52.743Z,100628.12
2018-10-11T22:55:20.562Z,100622.90
2018-10-11T22:57:48.428Z,100623.23
2018-10-11T23:00:16.324Z,100624.78
2018-10-11T23:02:44.059Z,100614.14
2018-10-11T23:05:11.842Z,100610.48
2018-10-11T23:07:39.663Z,100621.44
2018-10-11T23:10:07.526Z,100617.57
2018-10-11T23:12:35.259Z,100609.05
2018-10-11T23:15:03.620Z,100615.05
2018-10-11T23:17:31.937Z,100608.58
2018-10-11T23:20:00.261Z,100611.75
2018-10-11T23:22:28.539Z,100605.56
2018-10-11T23:24:56.761Z,100605.44
2018-10-11T23:27:24.528Z,100603.14
2018-10-11T23:29:52.335Z,100599.30
2018-10-11T23:32:20.098Z,100606.14
2018-10-11T23:34:47.871Z,100602.78
2018-10-11T23:37:15.706Z,100602.59
2018-10-11T23:39:43.467Z,100604.34
2018-10-11T23:42:11.244Z,100601.98
2018-10-11T23:44:38.988Z,100600.12
2018-10-11T23:47:06.908Z,100600.48
2018-10-11T23:49:34.833Z,100598.98
2018-10-11T23:52:02.783Z,100599.39
2018-10-11T23:54:30.651Z,100591.27
2018-10-11T23:56:58.502Z,100601.98
2018-10-11T23:59:26.423Z,100596.56
